createdAt,value
2023-02-09T00:01:23.251Z,18.50
2023-02-09T00:03:50.563Z,17.90
2023-02-09T00:06:20.308Z,15.97
2023-02-09T00:08:47.983Z,16.47
2023-02-09T00:11:47.633Z,13.77
2023-02-09T00:14:16.860Z,14.47
2023-02-09T00:16:44.226Z,11.87
2023-02-09T00:19:12.105Z,14.20
2023-02-09T00:21:39.976Z,14.70
2023-02-09T00:24:08.275Z,15.77
2023-02-09T00:26:35.052Z,15.67
2023-02-09T00:29:01.876Z,16.70
2023-02-09T00:31:28.826Z,15.13
2023-02-09T00:33:55.629Z,14.63
2023-02-09T00:36:22.582Z,20.97
2023-02-09T00:38:49.494Z,14.53
2023-02-09T00:41:17.322Z,13.10
2023-02-09T00:43:44.364Z,13.70
2023-02-09T00:46:11.410Z,14.50
2023-02-09T00:48:38.408Z,14.27
2023-02-09T00:51:05.416Z,15.37
2023-02-09T00:53:32.200Z,14.23
2023-02-09T00:56:00.332Z,14.87
2023-02-09T00:58:27.452Z,13.63
2023-02-09T01:00:54.346Z,14.40
2023-02-09T01:03:21.217Z,13.90
2023-02-09T01:05:48.030Z,13.60
2023-02-09T01:08:14.859Z,15.07
2023-02-09T01:10:41.719Z,11.87
2023-02-09T01:13:08.525Z,13.60
2023-02-09T01:15:35.548Z,10.47
2023-02-09T01:18:02.488Z,11.87
2023-02-09T01:20:29.353Z,9.10
2023-02-09T01:22:56.576Z,7.40
2023-02-09T01:25:23.318Z,9.77
2023-02-09T01:27:50.247Z,8.80
2023-02-09T01:30:17.392Z,7.13
2023-02-09T01:32:44.445Z,9.90
2023-02-09T01:35:11.438Z,8.77
2023-02-09T01:37:38.628Z,7.73
2023-02-09T01:40:06.137Z,8.40
2023-02-09T01:42:33.424Z,8.13
2023-02-09T01:45:16.968Z,9.10
2023-02-09T01:47:48.598Z,5.90
2023-02-09T01:50:16.561Z,8.67
2023-02-09T01:52:45.016Z,9.70
2023-02-09T01:55:16.100Z,7.93
2023-02-09T01:57:50.633Z,8.43
2023-02-09T02:00:20.821Z,10.00
2023-02-09T02:02:52.652Z,8.97
2023-02-09T02:05:20.571Z,7.90
2023-02-09T02:08:07.864Z,9.57
2023-02-09T02:10:35.010Z,10.47
2023-02-09T02:13:02.109Z,11.77
2023-02-09T02:15:56.548Z,12.40
2023-02-09T02:18:40.541Z,10.80
2023-02-09T02:21:34.450Z,11.57
2023-02-09T02:24:01.244Z,10.63
2023-02-09T02:26:51.360Z,7.60
2023-02-09T02:29:53.528Z,8.90
2023-02-09T02:32:39.034Z,8.83
2023-02-09T02:35:11.592Z,10.37
2023-02-09T02:37:59.689Z,10.13
2023-02-09T02:40:45.293Z,12.83
2023-02-09T02:43:43.297Z,11.53
2023-02-09T02:46:19.070Z,10.23
2023-02-09T02:49:00.441Z,10.23
2023-02-09T02:51:31.976Z,9.80
2023-02-09T02:54:02.822Z,10.33
2023-02-09T02:56:42.733Z,10.33
2023-02-09T02:59:14.068Z,11.23
2023-02-09T03:02:08.945Z,12.10
2023-02-09T03:04:38.645Z,12.37
2023-02-09T03:07:06.784Z,11.90
2023-02-09T03:09:33.912Z,11.00
2023-02-09T03:12:27.136Z,11.13
2023-02-09T03:21:49.614Z,10.90
2023-02-09T03:24:34.422Z,10.57
2023-02-09T03:27:43.648Z,9.73
2023-02-09T03:30:13.932Z,11.13
2023-02-09T03:32:42.248Z,11.17
2023-02-09T03:35:11.502Z,10.57
2023-02-09T03:37:38.365Z,10.50
2023-02-09T03:40:05.578Z,10.07
2023-02-09T03:42:32.468Z,11.07
2023-02-09T03:44:59.279Z,13.97
2023-02-09T03:47:26.105Z,12.10
2023-02-09T03:49:52.960Z,10.67
2023-02-09T03:52:19.709Z,11.23
2023-02-09T03:54:47.912Z,9.67
2023-02-09T03:57:14.875Z,11.50
2023-02-09T03:59:45.114Z,11.90
2023-02-09T04:02:13.044Z,12.00
2023-02-09T04:04:39.916Z,11.73
2023-02-09T04:07:07.117Z,12.97
2023-02-09T04:09:34.444Z,12.77
2023-02-09T04:12:01.595Z,14.23
2023-02-09T04:14:28.500Z,10.90
2023-02-09T04:16:55.357Z,11.20
2023-02-09T04:19:22.272Z,9.97
2023-02-09T04:21:49.084Z,11.60
2023-02-09T04:24:15.900Z,9.67
2023-02-09T04:26:42.662Z,12.70
2023-02-09T04:29:09.444Z,12.27
2023-02-09T04:31:36.405Z,12.87
2023-02-09T04:34:03.249Z,11.17
2023-02-09T04:36:30.478Z,10.57
2023-02-09T04:38:57.624Z,10.27
2023-02-09T04:41:24.403Z,11.87
2023-02-09T04:43:51.267Z,12.53
2023-02-09T04:46:18.975Z,11.83
2023-02-09T04:48:46.703Z,10.67
2023-02-09T04:51:13.783Z,10.23
2023-02-09T04:53:40.811Z,12.33
2023-02-09T04:56:07.977Z,9.90
2023-02-09T04:58:53.698Z,12.43
2023-02-09T05:01:24.179Z,12.17
2023-02-09T05:03:51.336Z,13.27
2023-02-09T05:06:18.730Z,13.33
2023-02-09T05:08:45.535Z,10.67
2023-02-09T05:11:12.685Z,11.17
2023-02-09T05:13:39.723Z,15.63
2023-02-09T05:16:13.792Z,10.33
2023-02-09T05:18:40.877Z,12.80
2023-02-09T05:21:07.680Z,13.13
2023-02-09T05:23:34.469Z,10.77
2023-02-09T05:26:01.516Z,10.63
2023-02-09T05:28:28.459Z,11.07
2023-02-09T05:30:55.319Z,11.33
2023-02-09T05:33:23.917Z,18.27
2023-02-09T05:35:52.499Z,14.07
2023-02-09T05:38:19.756Z,12.10
2023-02-09T05:40:47.236Z,12.87
2023-02-09T05:43:14.229Z,10.77
2023-02-09T05:45:41.055Z,11.27
2023-02-09T05:48:07.951Z,12.07
2023-02-09T05:50:36.341Z,9.77
2023-02-09T05:53:03.244Z,11.53
2023-02-09T05:55:30.263Z,11.53
2023-02-09T05:57:57.002Z,10.77
2023-02-09T06:00:25.210Z,14.33
2023-02-09T06:02:52.175Z,12.50
2023-02-09T06:05:20.963Z,14.10
2023-02-09T06:07:48.839Z,13.83
2023-02-09T06:10:17.042Z,14.17
2023-02-09T06:12:43.876Z,18.93
2023-02-09T06:15:10.972Z,11.60
2023-02-09T06:17:37.944Z,13.33
2023-02-09T06:20:05.802Z,15.13
2023-02-09T06:22:32.636Z,16.60
2023-02-09T06:24:59.480Z,14.40
2023-02-09T06:27:26.320Z,14.83
2023-02-09T06:29:53.982Z,12.50
2023-02-09T06:32:20.890Z,16.33
2023-02-09T06:34:47.928Z,14.30
2023-02-09T06:37:14.738Z,17.50
2023-02-09T06:39:41.964Z,13.90
2023-02-09T06:42:09.413Z,14.37
2023-02-09T06:44:36.528Z,13.23
2023-02-09T06:47:04.228Z,16.87
2023-02-09T06:49:31.049Z,17.03
2023-02-09T06:51:58.287Z,14.97
2023-02-09T06:54:25.829Z,14.67
2023-02-09T06:56:52.673Z,18.10
2023-02-09T06:59:19.785Z,17.63
2023-02-09T07:01:49.325Z,14.77
2023-02-09T07:04:16.277Z,15.20
2023-02-09T07:06:43.221Z,13.17
2023-02-09T07:09:10.317Z,12.73
2023-02-09T07:11:37.411Z,13.87
2023-02-09T07:14:04.227Z,15.73
2023-02-09T07:16:32.183Z,15.00
2023-02-09T07:19:00.425Z,15.43
2023-02-09T07:21:27.486Z,16.33
2023-02-09T07:23:54.404Z,16.97
2023-02-09T07:26:21.188Z,13.73
2023-02-09T07:28:48.065Z,14.63
2023-02-09T07:31:16.311Z,16.33
2023-02-09T07:33:43.487Z,15.17
2023-02-09T07:36:12.993Z,14.87
2023-02-09T07:38:41.004Z,19.73
2023-02-09T07:41:12.761Z,20.77
2023-02-09T07:43:39.982Z,17.60
2023-02-09T07:46:08.749Z,15.97
2023-02-09T07:48:36.377Z,16.20
2023-02-09T07:51:03.354Z,16.30
2023-02-09T07:53:30.212Z,14.13
2023-02-09T07:55:57.263Z,16.20
2023-02-09T07:58:24.448Z,16.03
2023-02-09T08:00:51.674Z,12.63
2023-02-09T08:03:23.944Z,10.77
2023-02-09T08:06:30.395Z,12.73
2023-02-09T08:09:05.490Z,15.17
2023-02-09T08:12:03.011Z,13.00
2023-02-09T08:14:43.328Z,12.37
2023-02-09T08:17:21.417Z,14.10
2023-02-09T08:19:51.029Z,14.50
2023-02-09T08:22:18.103Z,12.57
2023-02-09T08:24:45.391Z,12.80
2023-02-09T08:27:12.282Z,15.57
2023-02-09T08:29:39.379Z,15.83
2023-02-09T08:32:06.365Z,14.10
2023-02-09T08:34:33.367Z,11.13
2023-02-09T08:37:00.178Z,12.83
2023-02-09T08:39:26.948Z,12.47
2023-02-09T08:41:53.733Z,17.87
2023-02-09T08:44:20.581Z,15.63
2023-02-09T08:46:47.648Z,12.50
2023-02-09T08:49:15.394Z,16.77
2023-02-09T08:51:42.296Z,14.13
2023-02-09T08:54:09.224Z,16.43
2023-02-09T08:56:36.669Z,13.63
2023-02-09T08:59:03.691Z,15.10
2023-02-09T09:01:30.690Z,14.20
2023-02-09T09:03:57.969Z,18.20
2023-02-09T09:06:25.687Z,16.93
2023-02-09T09:08:52.625Z,15.57
2023-02-09T09:11:20.900Z,16.87
2023-02-09T09:13:49.060Z,15.23
2023-02-09T09:16:21.480Z,15.40
2023-02-09T09:18:49.253Z,14.23
2023-02-09T09:21:18.904Z,14.63
2023-02-09T09:23:46.835Z,18.60
2023-02-09T09:26:15.635Z,17.57
2023-02-09T09:28:43.447Z,15.80
2023-02-09T09:31:16.547Z,17.53
2023-02-09T09:33:44.027Z,15.87
2023-02-09T09:36:11.930Z,14.90
2023-02-09T09:38:39.615Z,22.00
2023-02-09T09:41:21.203Z,18.03
2023-02-09T09:43:48.957Z,16.40
2023-02-09T09:46:20.361Z,20.80
2023-02-09T09:48:56.684Z,18.90
2023-02-09T09:51:44.031Z,17.13
2023-02-09T09:54:24.599Z,13.73
2023-02-09T09:56:53.268Z,17.30
2023-02-09T09:59:48.325Z,16.73
2023-02-09T10:02:23.562Z,15.80
2023-02-09T10:04:51.392Z,16.87
2023-02-09T10:07:23.623Z,16.20
2023-02-09T10:09:57.742Z,14.50
2023-02-09T10:12:38.891Z,16.30
2023-02-09T10:15:28.140Z,17.70
2023-02-09T10:17:57.019Z,13.13
2023-02-09T10:20:49.233Z,17.93
2023-02-09T10:23:20.926Z,16.33
2023-02-09T10:26:02.425Z,18.93
2023-02-09T10:28:33.188Z,16.47
2023-02-09T10:31:03.657Z,15.53
2023-02-09T10:33:42.290Z,15.77
2023-02-09T10:36:27.964Z,16.33
2023-02-09T10:39:24.081Z,14.37
2023-02-09T10:41:55.984Z,15.30
2023-02-09T10:44:30.658Z,20.93
2023-02-09T10:47:16.386Z,16.80
2023-02-09T10:49:44.756Z,16.20
2023-02-09T10:52:16.788Z,19.00
2023-02-09T10:55:07.531Z,17.47
2023-02-09T10:57:36.860Z,13.87
2023-02-09T11:00:32.354Z,14.40
2023-02-09T11:03:04.104Z,19.20
2023-02-09T11:05:34.843Z,20.67
2023-02-09T11:08:06.764Z,15.87
2023-02-09T11:10:38.865Z,16.87
2023-02-09T11:13:19.684Z,15.83
2023-02-09T11:16:05.292Z,18.80
2023-02-09T11:18:36.023Z,14.77
2023-02-09T11:21:12.900Z,14.80
2023-02-09T11:23:51.067Z,19.33
2023-02-09T11:26:43.308Z,16.70
2023-02-09T11:29:30.762Z,16.17
2023-02-09T11:32:03.772Z,16.73
2023-02-09T11:34:43.247Z,16.40
2023-02-09T11:37:39.240Z,15.10
2023-02-09T11:40:29.264Z,14.63
2023-02-09T11:43:07.069Z,16.73
2023-02-09T11:45:36.796Z,18.73
2023-02-09T11:48:35.764Z,15.57
2023-02-09T11:51:12.758Z,16.50
2023-02-09T11:54:05.643Z,18.27
2023-02-09T11:56:40.002Z,14.00
2023-02-09T11:59:31.005Z,15.57
2023-02-09T12:02:30.374Z,18.53
2023-02-09T12:05:03.207Z,23.47
2023-02-09T12:07:35.247Z,18.77
2023-02-09T12:10:24.398Z,21.10
2023-02-09T12:13:17.202Z,17.93
2023-02-09T12:15:52.202Z,17.20
2023-02-09T12:18:23.217Z,15.93
2023-02-09T12:21:00.362Z,19.40
2023-02-09T12:23:42.877Z,19.80
2023-02-09T12:26:13.585Z,21.37
2023-02-09T12:29:07.597Z,14.90
2023-02-09T12:32:13.859Z,20.53
2023-02-09T12:34:45.544Z,19.00
2023-02-09T12:37:28.132Z,16.97
2023-02-09T12:40:07.864Z,17.43
2023-02-09T12:42:44.348Z,16.93
2023-02-09T12:45:38.086Z,14.10
2023-02-09T12:48:10.136Z,19.30
2023-02-09T12:50:43.797Z,17.97
2023-02-09T12:53:22.976Z,17.03
2023-02-09T12:56:22.865Z,15.77
2023-02-09T12:58:50.990Z,19.03
2023-02-09T13:01:19.024Z,19.57
2023-02-09T13:04:09.922Z,18.70
2023-02-09T13:06:53.385Z,20.10
2023-02-09T13:09:33.337Z,16.07
2023-02-09T13:12:23.709Z,15.57
2023-02-09T13:14:51.721Z,21.27
2023-02-09T13:17:49.020Z,23.47
2023-02-09T13:20:34.934Z,15.57
2023-02-09T13:23:20.557Z,17.53
2023-02-09T13:25:48.948Z,16.33
2023-02-09T13:28:23.563Z,18.67
2023-02-09T13:30:53.321Z,24.17
2023-02-09T13:33:51.555Z,22.50
2023-02-09T13:36:48.020Z,14.93
2023-02-09T13:39:28.191Z,14.43
2023-02-09T13:41:56.107Z,14.80
2023-02-09T13:44:26.156Z,15.77
2023-02-09T13:47:00.987Z,14.57
2023-02-09T13:49:31.609Z,18.07
2023-02-09T13:52:14.439Z,12.63
2023-02-09T13:54:42.598Z,12.70
2023-02-09T13:57:36.704Z,14.67
2023-02-09T14:00:24.267Z,15.67
2023-02-09T14:03:16.904Z,13.83
2023-02-09T14:06:02.378Z,14.83
2023-02-09T14:08:32.491Z,15.87
2023-02-09T14:11:18.123Z,16.63
2023-02-09T14:13:50.731Z,15.43
2023-02-09T14:16:24.119Z,13.60
2023-02-09T14:19:00.404Z,13.40
2023-02-09T14:21:40.566Z,12.87
2023-02-09T14:24:14.256Z,15.27
2023-02-09T14:26:50.656Z,15.07
2023-02-09T14:29:34.644Z,15.43
2023-02-09T14:32:33.208Z,11.80
2023-02-09T14:35:23.005Z,14.40
2023-02-09T14:37:55.446Z,15.70
2023-02-09T14:40:27.612Z,13.40
2023-02-09T14:43:02.987Z,13.60
2023-02-09T14:45:47.048Z,12.93
2023-02-09T14:48:26.507Z,13.43
2023-02-09T14:50:57.914Z,14.23
2023-02-09T14:53:32.822Z,11.73
2023-02-09T14:56:00.184Z,13.43
2023-02-09T14:58:35.369Z,13.03
2023-02-09T15:01:04.080Z,11.40
2023-02-09T15:03:32.061Z,14.90
2023-02-09T15:06:03.334Z,13.00
2023-02-09T15:08:36.019Z,13.20
2023-02-09T15:11:27.911Z,14.00
2023-02-09T15:14:04.087Z,14.50
2023-02-09T15:16:32.519Z,11.40
2023-02-09T15:18:59.603Z,15.77
2023-02-09T15:21:26.698Z,14.43
2023-02-09T15:23:54.219Z,14.10
2023-02-09T15:26:23.313Z,15.10
2023-02-09T15:28:50.592Z,15.60
2023-02-09T15:31:17.583Z,14.20
2023-02-09T15:33:45.476Z,15.93
2023-02-09T15:36:19.928Z,17.20
2023-02-09T15:38:47.609Z,13.77
2023-02-09T15:41:35.981Z,13.20
2023-02-09T15:44:38.053Z,13.00
2023-02-09T15:47:24.351Z,17.30
2023-02-09T15:49:51.452Z,15.03
2023-02-09T15:52:19.113Z,15.90
2023-02-09T15:54:46.541Z,14.17
2023-02-09T15:57:15.283Z,15.53
2023-02-09T15:59:42.846Z,15.13
2023-02-09T16:02:14.703Z,14.47
2023-02-09T16:04:41.735Z,16.00
2023-02-09T16:07:20.383Z,13.63
2023-02-09T16:09:47.881Z,15.37
2023-02-09T16:12:16.663Z,14.27
2023-02-09T16:14:43.616Z,14.50
2023-02-09T16:17:10.587Z,14.87
2023-02-09T16:19:37.492Z,16.57
2023-02-09T16:22:07.299Z,18.57
2023-02-09T16:24:40.699Z,16.23
2023-02-09T16:27:28.069Z,21.00
2023-02-09T16:29:56.338Z,19.60
2023-02-09T16:32:25.079Z,18.07
2023-02-09T16:34:52.343Z,15.30
2023-02-09T16:37:31.884Z,16.13
2023-02-09T16:39:59.394Z,16.07
2023-02-09T16:42:29.519Z,20.57
2023-02-09T16:45:00.223Z,17.70
2023-02-09T16:47:28.991Z,14.37
2023-02-09T16:50:00.843Z,17.37
2023-02-09T16:52:30.436Z,14.27
2023-02-09T16:55:05.682Z,14.83
2023-02-09T16:57:32.654Z,16.33
2023-02-09T16:59:59.956Z,16.03
2023-02-09T17:02:40.957Z,17.90
2023-02-09T17:05:17.248Z,24.93
2023-02-09T17:07:53.936Z,16.87
2023-02-09T17:10:26.017Z,15.60
2023-02-09T17:12:53.870Z,19.73
2023-02-09T17:15:30.130Z,20.77
2023-02-09T17:18:03.286Z,20.00
2023-02-09T17:20:37.765Z,17.50
2023-02-09T17:23:05.741Z,14.63
2023-02-09T17:25:33.430Z,13.97
2023-02-09T17:28:00.460Z,13.63
2023-02-09T17:30:27.663Z,17.47
2023-02-09T17:33:01.494Z,17.73
2023-02-09T17:35:57.944Z,16.97
2023-02-09T17:38:40.895Z,22.03
2023-02-09T17:41:20.489Z,16.83
2023-02-09T17:43:49.486Z,15.17
2023-02-09T17:46:21.286Z,20.23
2023-02-09T17:48:48.833Z,20.90
2023-02-09T17:51:31.278Z,20.30
2023-02-09T17:53:58.192Z,19.47
2023-02-09T17:56:24.994Z,20.63
2023-02-09T17:58:51.849Z,17.13
2023-02-09T18:01:26.936Z,18.07
2023-02-09T18:03:59.620Z,19.27
2023-02-09T18:06:38.143Z,18.10
2023-02-09T18:09:08.599Z,17.77
2023-02-09T18:11:58.870Z,17.97
2023-02-09T18:14:26.776Z,15.17
2023-02-09T18:16:55.137Z,16.43
2023-02-09T18:19:23.667Z,21.43
2023-02-09T18:21:52.008Z,18.07
2023-02-09T18:24:20.768Z,17.80
2023-02-09T18:26:49.688Z,18.73
2023-02-09T18:29:17.174Z,15.13
2023-02-09T18:31:44.357Z,19.70
2023-02-09T18:34:11.288Z,21.37
2023-02-09T18:36:38.128Z,18.33
2023-02-09T18:39:05.096Z,18.20
2023-02-09T18:41:32.124Z,16.93
2023-02-09T18:43:59.233Z,20.17
2023-02-09T18:46:27.275Z,22.10
2023-02-09T18:48:54.921Z,18.67
2023-02-09T18:51:22.359Z,17.67
2023-02-09T18:53:51.371Z,18.83
2023-02-09T18:56:22.496Z,20.17
2023-02-09T18:58:53.290Z,18.03
2023-02-09T19:01:22.365Z,18.93
2023-02-09T19:03:50.847Z,16.13
2023-02-09T19:06:20.510Z,17.57
2023-02-09T19:08:48.324Z,17.60
2023-02-09T19:11:21.972Z,18.07
2023-02-09T19:14:07.819Z,18.00
2023-02-09T19:16:37.256Z,18.03
2023-02-09T19:19:04.352Z,22.27
2023-02-09T19:21:32.427Z,20.00
2023-02-09T19:23:59.234Z,20.73
2023-02-09T19:26:26.355Z,19.90
2023-02-09T19:28:55.832Z,16.07
2023-02-09T19:31:22.691Z,18.53
2023-02-09T19:33:49.627Z,19.23
2023-02-09T19:36:16.784Z,29.03
2023-02-09T19:38:43.854Z,19.30
2023-02-09T19:41:13.059Z,18.90
2023-02-09T19:43:40.622Z,21.93
2023-02-09T19:46:10.015Z,18.30
2023-02-09T19:48:40.457Z,22.00
2023-02-09T19:51:08.570Z,21.47
2023-02-09T19:53:35.496Z,18.33
2023-02-09T19:56:03.158Z,21.67
2023-02-09T19:58:30.484Z,17.07
2023-02-09T20:00:57.629Z,18.73
2023-02-09T20:03:25.014Z,19.87
2023-02-09T20:05:52.104Z,23.57
2023-02-09T20:08:20.140Z,19.73
2023-02-09T20:10:48.073Z,20.87
2023-02-09T20:13:16.555Z,17.33
2023-02-09T20:15:44.538Z,18.97
2023-02-09T20:18:13.673Z,17.30
2023-02-09T20:20:43.406Z,21.73
2023-02-09T20:23:10.644Z,23.57
2023-02-09T20:25:41.616Z,18.00
2023-02-09T20:28:08.861Z,18.27
2023-02-09T20:30:35.763Z,20.53
2023-02-09T20:33:02.844Z,18.90
2023-02-09T20:35:30.053Z,20.97
2023-02-09T20:37:56.990Z,22.63
2023-02-09T20:40:23.929Z,19.90
2023-02-09T20:43:09.554Z,19.13
2023-02-09T20:45:55.171Z,24.47
2023-02-09T20:48:22.049Z,16.30
2023-02-09T20:50:49.983Z,19.70
2023-02-09T20:53:17.127Z,23.73
2023-02-09T20:55:44.392Z,21.83
2023-02-09T20:58:13.723Z,19.30
2023-02-09T21:00:44.780Z,25.17
2023-02-09T21:03:12.059Z,23.87
2023-02-09T21:05:39.275Z,22.77
2023-02-09T21:08:09.132Z,28.07
2023-02-09T21:10:38.564Z,22.10
2023-02-09T21:13:07.553Z,25.93
2023-02-09T21:15:39.911Z,21.10
2023-02-09T21:18:07.001Z,23.23
2023-02-09T21:20:37.354Z,21.77
2023-02-09T21:23:04.583Z,21.80
2023-02-09T21:25:31.829Z,23.10
2023-02-09T21:28:00.066Z,22.20
2023-02-09T21:30:28.077Z,22.50
2023-02-09T21:32:56.327Z,25.27
2023-02-09T21:35:24.664Z,21.07
2023-02-09T21:37:52.947Z,19.50
2023-02-09T21:40:23.033Z,23.93
2023-02-09T21:42:51.357Z,22.53
2023-02-09T21:45:18.997Z,20.07
2023-02-09T21:47:46.139Z,21.33
2023-02-09T21:50:14.690Z,26.30
2023-02-09T21:52:41.780Z,25.33
2023-02-09T21:55:08.859Z,29.50
2023-02-09T21:57:36.518Z,19.97
2023-02-09T22:00:08.241Z,22.63
2023-02-09T22:02:36.600Z,22.53
2023-02-09T22:05:04.098Z,30.67
2023-02-09T22:07:31.493Z,25.10
2023-02-09T22:09:59.619Z,27.03
2023-02-09T22:12:27.057Z,22.47
2023-02-09T22:14:54.120Z,22.87
2023-02-09T22:17:21.557Z,25.07
2023-02-09T22:19:48.660Z,19.03
2023-02-09T22:22:15.914Z,25.30
2023-02-09T22:24:42.832Z,21.80
2023-02-09T22:27:09.853Z,21.60
2023-02-09T22:29:37.440Z,25.53
2023-02-09T22:32:04.360Z,25.73
2023-02-09T22:34:31.347Z,27.97
2023-02-09T22:36:58.290Z,22.07
2023-02-09T22:39:25.334Z,31.83
2023-02-09T22:41:58.127Z,25.23
2023-02-09T22:44:27.873Z,27.77
2023-02-09T22:46:54.710Z,23.83
2023-02-09T22:49:21.883Z,24.93
2023-02-09T22:51:51.374Z,22.97
2023-02-09T22:54:19.870Z,25.20
2023-02-09T22:56:47.481Z,28.53
2023-02-09T22:59:15.413Z,27.80
2023-02-09T23:01:43.000Z,29.73
2023-02-09T23:04:10.055Z,28.33
2023-02-09T23:06:37.361Z,27.53
2023-02-09T23:09:07.450Z,26.40
2023-02-09T23:11:35.020Z,29.73
2023-02-09T23:14:10.798Z,28.37
2023-02-09T23:16:40.102Z,28.97
2023-02-09T23:19:09.714Z,26.70
2023-02-09T23:21:39.696Z,26.17
2023-02-09T23:24:07.339Z,31.93
2023-02-09T23:26:35.242Z,31.50
2023-02-09T23:29:05.031Z,25.93
2023-02-09T23:31:32.223Z,31.20
2023-02-09T23:33:59.417Z,27.67
2023-02-09T23:36:28.959Z,33.10
2023-02-09T23:38:58.124Z,25.40
2023-02-09T23:41:26.212Z,26.73
2023-02-09T23:43:54.494Z,33.43
2023-02-09T23:46:25.433Z,27.60
2023-02-09T23:48:54.777Z,31.97
2023-02-09T23:51:28.478Z,34.13
2023-02-09T23:53:57.295Z,28.63
2023-02-09T23:56:24.604Z,27.80
2023-02-09T23:58:52.804Z,30.07
